Etusivu
METAR-TAF:

METAR-TAF

Lentoasemat :

Fillmore County Airport

Preston, Minnesota, Yhdysvallat

Leveyspiiri: 43-40-36N, Pituuspiiri: 092-10-47W, korkeus merenpinnasta: 389 m

Tämänhetkinen sää

Tämä raportti tehtiin 25 minuuttia sitten, kello 12.35 UTC
Tuuli 13 kn etelästä puuskistuen 18 kn:hen
Lämpötila -9°C
Kosteus 73%
Ilmanpaine 1014 hPa
Näkyvyys: 16.1 km
selkeää

METAR: KFKA 131235Z AUTO 18013G18KT 10SM CLR M09/M13 A2993 RMK AO2 T10901129

Aika: 07:00 (13:00 UTC)


TAF: puuttuu

Säähavainnot ja -ennusteet yli 4000 lentoasemalta (METAR- ja TAF-raportit).

Käytössä olevat sääasemat on merkitty karttaan keltaisilla ja punaisilla pisteillä.

Aseta hiiri pisteen päälle nähdäksesi sääaseman nimen.

Klikkaa sitten nähdäksesi säähavainnot ja -ennusteet.

Kartan vaihtaminen: klikkaa mustalla rastilla varustettuja vihreitä pisteitä, niin voit zoomata sisään; viivalla varustettua vihreää pistettä, niin voit zoomata ulos tai vihreitä nuolia, niin pääset viereisille kartoille.


METAR-TAF: